Time;durP1;ratioP1;P1;durP2;ratioP2;P2;SDS_P1;SDS_P2;PMS_P1;PMS_P2;Temp;Humidity;BMP_temperature;BMP_pressure;BME280_temperature;BME280_humidity;BME280_pressure;Samples;Min_cycle;Max_cycle;Signal;HPM_P1;HPM_P2
2021/10/28 00:12:25;;;;;;;48.55;43.25;;;;;;;;;;5034825;28;20271;-45
2021/10/28 00:14:56;;;;;;;48.15;41.80;;;;;;;;;;5033570;28;20176;-45
2021/10/28 00:17:39;;;;;;;46.22;41.03;;;;;;;;;;5030058;28;20176;-45
2021/10/28 00:20:05;;;;;;;46.25;41.25;;;;;;;;;;5034735;28;20164;-45
2021/10/28 00:22:31;;;;;;;45.17;40.28;;;;;;;;;;5034148;28;20562;-45
2021/10/28 00:24:57;;;;;;;44.92;40.03;;;;;;;;;;5029247;28;20609;-44
2021/10/28 00:27:23;;;;;;;44.58;39.75;;;;;;;;;;5034005;28;20207;-45
2021/10/28 00:29:49;;;;;;;41.83;37.42;;;;;;;;;;5034077;28;20194;-46
2021/10/28 00:32:15;;;;;;;43.15;37.53;;;;;;;;;;5032645;28;20443;-46
2021/10/28 00:34:41;;;;;;;41.30;36.70;;;;;;;;;;5033409;28;20184;-46
2021/10/28 00:37:07;;;;;;;40.25;35.90;;;;;;;;;;5034412;28;20278;-46
2021/10/28 00:39:33;;;;;;;39.38;35.17;;;;;;;;;;5033910;28;20216;-46
2021/10/28 00:41:59;;;;;;;39.03;34.15;;;;;;;;;;5034475;28;20199;-46
2021/10/28 00:44:25;;;;;;;39.35;34.38;;;;;;;;;;5033421;28;20179;-46
2021/10/28 00:46:52;;;;;;;37.33;33.28;;;;;;;;;;5032959;28;20536;-46
2021/10/28 00:49:18;;;;;;;38.40;33.22;;;;;;;;;;5033266;28;20265;-46
2021/10/28 00:51:44;;;;;;;35.63;31.83;;;;;;;;;;5027280;28;20491;-46
2021/10/28 00:54:14;;;;;;;34.22;30.60;;;;;;;;;;5028209;28;20180;-46
2021/10/28 00:56:43;;;;;;;33.97;30.38;;;;;;;;;;5033469;28;20190;-46
2021/10/28 00:59:09;;;;;;;32.72;29.33;;;;;;;;;;5033769;28;20183;-46
2021/10/28 01:01:36;;;;;;;32.42;28.92;;;;;;;;;;5033602;28;20617;-46
2021/10/28 01:04:03;;;;;;;34.38;30.58;;;;;;;;;;5033282;28;20208;-46
2021/10/28 01:06:30;;;;;;;32.05;28.65;;;;;;;;;;5032784;28;20606;-45
2021/10/28 01:08:57;;;;;;;30.02;26.83;;;;;;;;;;5033667;28;20306;-45
2021/10/28 01:11:25;;;;;;;30.70;27.42;;;;;;;;;;5034014;28;20607;-45
2021/10/28 01:13:51;;;;;;;30.92;27.58;;;;;;;;;;5032954;28;20263;-45
2021/10/28 01:16:24;;;;;;;29.17;25.75;;;;;;;;;;5037889;28;20187;-45
2021/10/28 01:18:50;;;;;;;30.50;26.52;;;;;;;;;;5037112;28;20190;-45
2021/10/28 01:21:16;;;;;;;27.85;24.98;;;;;;;;;;5036551;28;20180;-45
2021/10/28 01:23:42;;;;;;;29.25;26.15;;;;;;;;;;5036876;28;20186;-46
2021/10/28 01:26:10;;;;;;;28.52;25.17;;;;;;;;;;5037368;28;20200;-46
2021/10/28 01:28:37;;;;;;;27.40;24.50;;;;;;;;;;5037633;28;20187;-46
2021/10/28 01:31:10;;;;;;;25.70;22.98;;;;;;;;;;5037457;28;20176;-46
2021/10/28 01:33:37;;;;;;;26.17;23.40;;;;;;;;;;5036932;28;20184;-46
2021/10/28 01:36:05;;;;;;;25.23;22.52;;;;;;;;;;5036418;28;20180;-46
2021/10/28 01:38:31;;;;;;;25.17;22.58;;;;;;;;;;5036959;28;20183;-46
2021/10/28 01:41:04;;;;;;;24.65;21.95;;;;;;;;;;5037288;28;20176;-46
2021/10/28 01:43:32;;;;;;;23.70;21.13;;;;;;;;;;5036560;28;20648;-46
2021/10/28 01:45:59;;;;;;;23.33;20.90;;;;;;;;;;5036697;28;20220;-46
2021/10/28 01:48:25;;;;;;;23.42;21.00;;;;;;;;;;5037022;28;20195;-45
2021/10/28 01:50:51;;;;;;;21.98;19.67;;;;;;;;;;5036630;28;20198;-45
2021/10/28 01:53:17;;;;;;;22.80;20.40;;;;;;;;;;5035922;28;20259;-45
2021/10/28 01:55:43;;;;;;;21.90;19.63;;;;;;;;;;5037202;28;20176;-46
2021/10/28 01:58:13;;;;;;;21.83;19.55;;;;;;;;;;5036532;28;20183;-46
2021/10/28 02:00:40;;;;;;;21.20;18.90;;;;;;;;;;5036731;28;20785;-46
2021/10/28 02:03:06;;;;;;;21.27;19.05;;;;;;;;;;5035266;28;20505;-46
2021/10/28 02:05:32;;;;;;;20.92;18.75;;;;;;;;;;5035617;28;20282;-46
2021/10/28 02:07:59;;;;;;;19.92;17.90;;;;;;;;;;5036274;28;20255;-46
2021/10/28 02:10:25;;;;;;;19.88;17.77;;;;;;;;;;5036821;28;20493;-46
2021/10/28 02:12:51;;;;;;;19.65;17.60;;;;;;;;;;5036041;28;20183;-46
2021/10/28 02:15:18;;;;;;;18.77;16.83;;;;;;;;;;5036776;28;20184;-46
2021/10/28 02:17:44;;;;;;;18.73;16.83;;;;;;;;;;5024399;28;20267;-46
2021/10/28 02:20:12;;;;;;;18.65;16.73;;;;;;;;;;5034868;28;20606;-46
2021/10/28 02:22:38;;;;;;;18.17;16.33;;;;;;;;;;5035436;28;20192;-46
2021/10/28 02:25:05;;;;;;;17.98;16.08;;;;;;;;;;5035997;28;20681;-46
2021/10/28 02:27:31;;;;;;;17.05;14.98;;;;;;;;;;5035921;28;20425;-46
2021/10/28 02:29:58;;;;;;;16.75;14.98;;;;;;;;;;5035889;28;20180;-45
2021/10/28 02:32:24;;;;;;;15.95;14.27;;;;;;;;;;5030855;28;20283;-45
2021/10/28 02:34:51;;;;;;;16.58;14.88;;;;;;;;;;5035367;28;20478;-45
2021/10/28 02:37:17;;;;;;;16.55;14.65;;;;;;;;;;5036179;28;20459;-45
2021/10/28 02:39:43;;;;;;;15.18;13.68;;;;;;;;;;5036143;28;20186;-45
2021/10/28 02:42:10;;;;;;;15.88;14.23;;;;;;;;;;5036039;28;20176;-45
2021/10/28 02:44:36;;;;;;;14.50;13.00;;;;;;;;;;5034538;28;20175;-45
2021/10/28 02:47:02;;;;;;;14.98;13.48;;;;;;;;;;5032723;28;20199;-45
2021/10/28 02:49:28;;;;;;;14.23;12.75;;;;;;;;;;5030387;28;20223;-45
2021/10/28 02:51:54;;;;;;;14.40;12.90;;;;;;;;;;5026911;28;20222;-45
2021/10/28 02:54:21;;;;;;;14.68;13.18;;;;;;;;;;5035476;28;20176;-45
2021/10/28 02:56:47;;;;;;;14.15;12.73;;;;;;;;;;5035921;28;20180;-45
2021/10/28 02:59:13;;;;;;;13.10;11.80;;;;;;;;;;5035469;28;20713;-45
2021/10/28 03:01:42;;;;;;;12.82;11.52;;;;;;;;;;5035600;28;20490;-45
2021/10/28 03:04:08;;;;;;;13.07;11.77;;;;;;;;;;5034768;28;20245;-45
2021/10/28 03:06:37;;;;;;;13.40;12.05;;;;;;;;;;5035696;28;20203;-45
2021/10/28 03:09:04;;;;;;;13.25;11.85;;;;;;;;;;5025393;28;20172;-45
2021/10/28 03:11:30;;;;;;;12.10;10.85;;;;;;;;;;5035273;28;20206;-45
2021/10/28 03:13:56;;;;;;;12.00;10.80;;;;;;;;;;5027792;28;20175;-45
2021/10/28 03:16:43;;;;;;;11.52;10.40;;;;;;;;;;5035489;28;20167;-45
2021/10/28 03:27:26;;;;;;;11.15;9.90;;;;;;;;;;5034858;28;20279;-46
2021/10/28 03:29:52;;;;;;;10.82;9.73;;;;;;;;;;5035046;28;20218;-46
2021/10/28 03:32:20;;;;;;;11.40;10.20;;;;;;;;;;5035103;28;20532;-46
2021/10/28 03:34:48;;;;;;;10.38;9.38;;;;;;;;;;5034378;28;20176;-46
2021/10/28 03:37:18;;;;;;;10.00;9.00;;;;;;;;;;5035313;28;20781;-46
2021/10/28 03:48:07;;;;;;;9.07;8.18;;;;;;;;;;5034505;28;20198;-46
2021/10/28 04:17:03;;;;;;;7.55;6.85;;;;;;;;;;5035076;28;20225;-45
2021/10/28 04:30:38;;;;;;;7.00;6.28;;;;;;;;;;5034857;28;20566;-45
2021/10/28 04:33:04;;;;;;;6.30;5.72;;;;;;;;;;5033757;28;20176;-45
2021/10/28 04:35:30;;;;;;;6.32;5.72;;;;;;;;;;5029946;28;20183;-45
2021/10/28 04:37:56;;;;;;;6.75;6.15;;;;;;;;;;5014697;28;20576;-45
2021/10/28 04:40:22;;;;;;;7.50;6.65;;;;;;;;;;5034351;28;20195;-45
2021/10/28 04:42:48;;;;;;;6.20;5.60;;;;;;;;;;5033583;28;20214;-45
2021/10/28 04:45:14;;;;;;;6.13;5.55;;;;;;;;;;5034204;28;20475;-46
2021/10/28 04:47:40;;;;;;;6.22;5.63;;;;;;;;;;5033847;28;20271;-46
2021/10/28 04:50:07;;;;;;;6.43;5.82;;;;;;;;;;5026492;28;20215;-46
2021/10/28 04:52:33;;;;;;;6.25;5.65;;;;;;;;;;5037246;28;20186;-46
2021/10/28 04:54:59;;;;;;;5.93;5.38;;;;;;;;;;5037806;28;20184;-46
2021/10/28 04:57:25;;;;;;;5.32;4.82;;;;;;;;;;5037898;28;20179;-46
2021/10/28 04:59:51;;;;;;;6.97;5.03;;;;;;;;;;5037161;28;20582;-46
2021/10/28 05:02:17;;;;;;;5.53;5.03;;;;;;;;;;5036260;28;20312;-45
2021/10/28 05:04:43;;;;;;;5.68;5.07;;;;;;;;;;5021098;28;20177;-45
2021/10/28 05:07:09;;;;;;;5.55;5.05;;;;;;;;;;5018072;28;20181;-45
2021/10/28 05:09:39;;;;;;;4.65;4.25;;;;;;;;;;5031283;28;20187;-45
2021/10/28 05:12:06;;;;;;;5.15;4.70;;;;;;;;;;5034695;28;20254;-45
2021/10/28 05:14:32;;;;;;;4.78;4.38;;;;;;;;;;5036100;28;20180;-45
2021/10/28 05:16:58;;;;;;;5.50;4.55;;;;;;;;;;5037071;28;20247;-46
2021/10/28 05:19:26;;;;;;;4.82;4.30;;;;;;;;;;5037442;28;20263;-46
2021/10/28 05:21:52;;;;;;;5.00;4.50;;;;;;;;;;5037096;28;20186;-45
2021/10/28 05:24:18;;;;;;;4.18;3.78;;;;;;;;;;5036021;28;20267;-46
2021/10/28 05:26:44;;;;;;;4.80;4.28;;;;;;;;;;5036542;28;20203;-45
2021/10/28 05:29:10;;;;;;;4.60;4.20;;;;;;;;;;5037452;28;20287;-45
2021/10/28 05:31:36;;;;;;;4.38;3.97;;;;;;;;;;5036470;28;20182;-45
2021/10/28 05:34:02;;;;;;;4.82;4.32;;;;;;;;;;5037083;28;20267;-46
2021/10/28 05:36:27;;;;;;;3.95;3.65;;;;;;;;;;5037022;28;20176;-46
2021/10/28 05:38:54;;;;;;;4.65;4.07;;;;;;;;;;5036671;28;20184;-46
2021/10/28 05:41:20;;;;;;;4.20;3.80;;;;;;;;;;5036620;28;20191;-45
2021/10/28 05:43:46;;;;;;;4.13;3.72;;;;;;;;;;5036646;28;20190;-45
2021/10/28 05:46:12;;;;;;;4.28;3.70;;;;;;;;;;5027348;28;20302;-45
2021/10/28 05:48:38;;;;;;;4.18;3.78;;;;;;;;;;5036454;28;20172;-45
2021/10/28 05:51:05;;;;;;;4.15;3.50;;;;;;;;;;5036608;28;20179;-46
2021/10/28 05:53:31;;;;;;;3.85;3.45;;;;;;;;;;5034410;28;20200;-45
2021/10/28 05:55:57;;;;;;;3.85;3.55;;;;;;;;;;5036928;28;20202;-45
2021/10/28 05:58:23;;;;;;;4.20;3.80;;;;;;;;;;5035189;28;20180;-45
2021/10/28 06:00:49;;;;;;;3.53;3.22;;;;;;;;;;5027964;28;20172;-45
2021/10/28 06:03:15;;;;;;;3.97;3.63;;;;;;;;;;5035118;28;20613;-46
2021/10/28 06:05:42;;;;;;;3.83;3.42;;;;;;;;;;5036263;28;20215;-46
2021/10/28 06:08:08;;;;;;;3.80;3.45;;;;;;;;;;5035897;28;20626;-46
2021/10/28 06:10:34;;;;;;;4.70;3.58;;;;;;;;;;5036486;28;20175;-46
2021/10/28 06:13:03;;;;;;;3.72;3.38;;;;;;;;;;5035846;28;20482;-46
2021/10/28 06:15:31;;;;;;;4.00;3.60;;;;;;;;;;5036340;28;20168;-46
2021/10/28 06:18:00;;;;;;;3.53;3.22;;;;;;;;;;5035309;28;20168;-46
2021/10/28 06:20:26;;;;;;;3.63;3.33;;;;;;;;;;5036607;28;20294;-46
2021/10/28 06:22:53;;;;;;;3.53;3.22;;;;;;;;;;5035895;28;20191;-46
2021/10/28 06:25:20;;;;;;;3.60;3.30;;;;;;;;;;5036593;28;20249;-46
2021/10/28 06:27:46;;;;;;;3.25;2.95;;;;;;;;;;5022521;28;20223;-46
2021/10/28 06:30:13;;;;;;;3.83;3.28;;;;;;;;;;5035540;28;20283;-46
2021/10/28 06:32:43;;;;;;;2.85;2.65;;;;;;;;;;5035838;28;20183;-46
2021/10/28 06:35:09;;;;;;;3.40;3.10;;;;;;;;;;5029652;28;20188;-46
2021/10/28 06:37:35;;;;;;;4.38;3.33;;;;;;;;;;5027262;28;20571;-46
2021/10/28 06:40:01;;;;;;;3.45;3.10;;;;;;;;;;5035739;28;20183;-46
2021/10/28 06:42:27;;;;;;;3.15;2.85;;;;;;;;;;5036031;28;20551;-46
2021/10/28 06:44:53;;;;;;;3.22;2.92;;;;;;;;;;5035806;28;20222;-46
2021/10/28 06:47:19;;;;;;;3.28;2.97;;;;;;;;;;5032288;28;20230;-46
2021/10/28 06:49:45;;;;;;;3.13;2.85;;;;;;;;;;5034861;28;20208;-46
2021/10/28 06:52:13;;;;;;;4.25;3.17;;;;;;;;;;5034638;28;20168;-46
2021/10/28 06:54:41;;;;;;;2.80;2.60;;;;;;;;;;5027143;28;20444;-46
2021/10/28 07:02:45;;;;;;;3.33;2.72;;;;;;;;;;5015413;28;20207;-46
2021/10/28 07:05:12;;;;;;;3.67;2.90;;;;;;;;;;5015800;28;20253;-46
2021/10/28 07:07:38;;;;;;;3.20;2.88;;;;;;;;;;5016193;28;20637;-46
2021/10/28 07:15:08;;;;;;;3.20;2.90;;;;;;;;;;5032356;28;20215;-46
2021/10/28 07:28:19;;;;;;;2.63;2.42;;;;;;;;;;5029238;28;20226;-45
2021/10/28 08:19:20;;;;;;;2.67;2.20;;;;;;;;;;5030252;28;20188;-45
2021/10/28 08:21:55;;;;;;;2.50;2.30;;;;;;;;;;5032339;28;20218;-45
2021/10/28 08:29:38;;;;;;;2.67;2.40;;;;;;;;;;5033782;28;20207;-45
2021/10/28 08:32:04;;;;;;;2.75;2.28;;;;;;;;;;5032669;28;20824;-45
2021/10/28 08:34:33;;;;;;;2.53;2.33;;;;;;;;;;5031994;28;20640;-45
2021/10/28 08:37:07;;;;;;;2.33;2.13;;;;;;;;;;5033202;28;20274;-46
2021/10/28 08:39:33;;;;;;;2.42;2.22;;;;;;;;;;5033195;28;20180;-45
2021/10/28 08:42:02;;;;;;;2.28;2.17;;;;;;;;;;5040410;28;20482;-46
2021/10/28 08:44:30;;;;;;;2.88;2.67;;;;;;;;;;5031582;28;20561;-46
2021/10/28 08:46:57;;;;;;;2.75;2.40;;;;;;;;;;5027138;28;20238;-46
2021/10/28 08:49:30;;;;;;;4.07;2.70;;;;;;;;;;5030227;28;20222;-46
2021/10/28 08:52:09;;;;;;;2.45;2.25;;;;;;;;;;5031418;28;20234;-46
2021/10/28 09:25:07;;;;;;;2.30;2.10;;;;;;;;;;5031483;28;20196;-45
2021/10/28 09:27:47;;;;;;;3.10;2.40;;;;;;;;;;5031952;28;20226;-45
2021/10/28 09:30:27;;;;;;;2.50;2.15;;;;;;;;;;5045012;28;20187;-45
2021/10/28 09:33:00;;;;;;;2.35;2.15;;;;;;;;;;5053672;28;20183;-45
2021/10/28 09:44:20;;;;;;;2.50;1.90;;;;;;;;;;5024714;28;20171;-45
2021/10/28 09:51:59;;;;;;;2.42;2.08;;;;;;;;;;5037363;28;20190;-45
2021/10/28 09:57:49;;;;;;;2.28;1.85;;;;;;;;;;5017473;28;20208;-46
2021/10/28 10:00:16;;;;;;;2.13;1.90;;;;;;;;;;5036195;28;20179;-45
2021/10/28 10:02:53;;;;;;;1.98;1.85;;;;;;;;;;5037089;28;20341;-45
2021/10/28 10:05:24;;;;;;;3.25;1.80;;;;;;;;;;5036298;28;20933;-46
2021/10/28 10:07:51;;;;;;;2.40;2.20;;;;;;;;;;5037189;28;20168;-46
2021/10/28 10:10:20;;;;;;;2.20;1.90;;;;;;;;;;5034794;28;20255;-46
2021/10/28 10:12:47;;;;;;;2.00;1.90;;;;;;;;;;5036644;28;20172;-46
2021/10/28 10:15:13;;;;;;;2.08;1.90;;;;;;;;;;5036617;28;20286;-45
2021/10/28 10:17:41;;;;;;;2.15;1.88;;;;;;;;;;5036567;28;20218;-45
2021/10/28 10:20:11;;;;;;;1.80;1.70;;;;;;;;;;5036448;28;20176;-46
2021/10/28 10:22:52;;;;;;;2.20;2.00;;;;;;;;;;5036935;28;20187;-46
2021/10/28 10:25:43;;;;;;;1.92;1.83;;;;;;;;;;5036387;28;20309;-46
2021/10/28 10:28:56;;;;;;;2.00;1.80;;;;;;;;;;5034576;28;20168;-45
2021/10/28 12:13:54;;;;;;;1.33;1.23;;;;;;;;;;5015185;28;20184;-45
2021/10/28 12:43:22;;;;;;;1.30;1.20;;;;;;;;;;5013448;28;20198;-45
2021/10/28 12:46:01;;;;;;;1.20;1.20;;;;;;;;;;5032137;28;20230;-45
2021/10/28 12:56:46;;;;;;;0.80;0.80;;;;;;;;;;5032164;28;20180;-45
2021/10/28 13:05:19;;;;;;;1.30;1.20;;;;;;;;;;5034739;28;20238;-45
2021/10/28 13:38:23;;;;;;;1.35;1.20;;;;;;;;;;5034076;28;20191;-45
2021/10/28 13:49:11;;;;;;;2.05;1.48;;;;;;;;;;5036786;28;20198;-45
2021/10/28 14:39:14;;;;;;;1.88;1.30;;;;;;;;;;5035524;28;20192;-44
2021/10/28 15:27:39;;;;;;;4.70;2.50;;;;;;;;;;5034948;28;20202;-45
2021/10/28 15:28:18;;;;;;;12.38;4.53;;;;;;;;;;5033875;28;20264;-45
2021/10/28 15:36:19;;;;;;;8.88;4.22;;;;;;;;;;5035171;28;20309;-45
2021/10/28 15:38:54;;;;;;;10.23;4.93;;;;;;;;;;5035359;28;20190;-45
2021/10/28 15:52:59;;;;;;;30.40;9.35;;;;;;;;;;5035064;28;20547;-45
2021/10/28 16:22:03;;;;;;;186.20;100.43;;;;;;;;;;5027946;28;20194;-45
2021/10/28 16:24:31;;;;;;;193.93;98.60;;;;;;;;;;5043384;28;20640;-45
2021/10/28 16:26:57;;;;;;;181.77;93.43;;;;;;;;;;5053620;28;20214;-45
2021/10/28 16:29:24;;;;;;;176.65;93.85;;;;;;;;;;5048508;28;20261;-45
2021/10/28 16:31:50;;;;;;;188.23;94.78;;;;;;;;;;5021050;28;20189;-45
2021/10/28 16:34:18;;;;;;;177.07;88.88;;;;;;;;;;5034818;28;20180;-45
2021/10/28 16:36:45;;;;;;;161.23;88.15;;;;;;;;;;5032685;28;20168;-45
2021/10/28 16:39:12;;;;;;;160.40;87.00;;;;;;;;;;5026621;28;20207;-45
2021/10/28 16:41:42;;;;;;;168.75;88.97;;;;;;;;;;5034332;28;20180;-45
2021/10/28 16:44:08;;;;;;;158.70;81.78;;;;;;;;;;5033815;28;20183;-46
2021/10/28 16:46:35;;;;;;;152.50;84.03;;;;;;;;;;5036870;28;20218;-45
2021/10/28 16:49:01;;;;;;;159.68;83.93;;;;;;;;;;5037956;28;20217;-45
2021/10/28 16:51:27;;;;;;;146.25;81.28;;;;;;;;;;5036686;28;20175;-45
2021/10/28 16:53:54;;;;;;;150.75;79.72;;;;;;;;;;5037087;28;20206;-45
2021/10/28 16:56:21;;;;;;;152.68;81.45;;;;;;;;;;5037651;28;20188;-45
2021/10/28 16:58:47;;;;;;;166.32;87.15;;;;;;;;;;5038229;28;20182;-45
2021/10/28 17:01:13;;;;;;;177.23;90.18;;;;;;;;;;5036728;28;20188;-45
2021/10/28 17:03:39;;;;;;;169.00;88.22;;;;;;;;;;5037316;28;20192;-45
2021/10/28 17:06:06;;;;;;;162.57;83.93;;;;;;;;;;5037297;28;20195;-45
2021/10/28 17:08:32;;;;;;;167.90;84.45;;;;;;;;;;5035757;28;20183;-45
2021/10/28 17:11:00;;;;;;;155.40;82.78;;;;;;;;;;5038119;28;20164;-45
2021/10/28 17:13:26;;;;;;;138.02;78.10;;;;;;;;;;5037240;28;20226;-45
2021/10/28 17:15:52;;;;;;;141.32;75.97;;;;;;;;;;5037727;28;20487;-45
2021/10/28 17:18:18;;;;;;;138.50;72.03;;;;;;;;;;5037427;28;20255;-45
2021/10/28 17:20:44;;;;;;;142.23;74.70;;;;;;;;;;5037539;28;20563;-45
2021/10/28 17:23:18;;;;;;;140.18;72.25;;;;;;;;;;5035122;28;20183;-45
2021/10/28 17:25:51;;;;;;;137.82;71.80;;;;;;;;;;5037316;28;20196;-45
2021/10/28 17:28:17;;;;;;;131.85;67.43;;;;;;;;;;5037505;28;20172;-45
2021/10/28 17:30:43;;;;;;;123.07;68.00;;;;;;;;;;5037605;28;20160;-46
2021/10/28 17:33:10;;;;;;;128.20;66.68;;;;;;;;;;5036660;28;20206;-45
2021/10/28 17:35:36;;;;;;;122.13;66.00;;;;;;;;;;5037719;28;20168;-45
2021/10/28 17:38:02;;;;;;;121.00;62.35;;;;;;;;;;5037451;28;20168;-45
2021/10/28 17:40:28;;;;;;;117.93;61.33;;;;;;;;;;5021498;28;20191;-45
2021/10/28 17:42:56;;;;;;;116.60;60.70;;;;;;;;;;5022253;28;20745;-45
2021/10/28 17:45:26;;;;;;;108.18;60.05;;;;;;;;;;5036810;28;20573;-45
2021/10/28 17:47:52;;;;;;;113.57;57.03;;;;;;;;;;5036791;28;20199;-45
2021/10/28 17:50:18;;;;;;;100.55;56.08;;;;;;;;;;5037350;28;20233;-45
2021/10/28 17:52:44;;;;;;;106.43;56.10;;;;;;;;;;5036880;28;20192;-45
2021/10/28 17:55:10;;;;;;;98.38;55.30;;;;;;;;;;5035511;28;20208;-45
2021/10/28 17:57:37;;;;;;;101.38;54.45;;;;;;;;;;5037276;28;20441;-45
2021/10/28 18:00:05;;;;;;;98.03;51.58;;;;;;;;;;5036836;28;20184;-45
2021/10/28 18:02:31;;;;;;;87.28;48.88;;;;;;;;;;5036962;28;20190;-45
2021/10/28 18:04:58;;;;;;;90.38;47.92;;;;;;;;;;5036374;28;20187;-45
2021/10/28 18:07:24;;;;;;;81.65;46.65;;;;;;;;;;5038247;28;20203;-46
2021/10/28 18:09:51;;;;;;;84.57;46.55;;;;;;;;;;5036001;28;20172;-46
2021/10/28 18:12:16;;;;;;;79.47;46.15;;;;;;;;;;5036290;28;20180;-45
2021/10/28 18:14:43;;;;;;;85.45;45.88;;;;;;;;;;5035109;28;20184;-45
2021/10/28 18:17:11;;;;;;;77.82;42.85;;;;;;;;;;5036765;28;20265;-45
2021/10/28 18:19:38;;;;;;;70.97;41.53;;;;;;;;;;5036955;28;20198;-45
2021/10/28 18:22:05;;;;;;;70.72;40.53;;;;;;;;;;5036558;28;20390;-45
2021/10/28 18:24:31;;;;;;;73.60;40.15;;;;;;;;;;5036025;28;20187;-45
2021/10/28 18:26:57;;;;;;;76.57;40.58;;;;;;;;;;5036852;28;20299;-45
2021/10/28 18:29:24;;;;;;;66.30;38.63;;;;;;;;;;5030664;28;20234;-45
2021/10/28 18:31:50;;;;;;;69.43;38.72;;;;;;;;;;5016943;28;20177;-45
2021/10/28 18:34:16;;;;;;;66.28;37.25;;;;;;;;;;5032734;28;20243;-45
2021/10/28 18:36:44;;;;;;;58.28;35.22;;;;;;;;;;5036377;28;20230;-45
2021/10/28 18:39:13;;;;;;;57.50;35.42;;;;;;;;;;5036244;28;20269;-45
2021/10/28 18:41:39;;;;;;;59.35;35.40;;;;;;;;;;5036312;28;20178;-45
2021/10/28 18:44:05;;;;;;;61.47;34.75;;;;;;;;;;5032784;28;20190;-45
2021/10/28 18:46:34;;;;;;;59.42;34.53;;;;;;;;;;5024353;28;20234;-45
2021/10/28 18:49:00;;;;;;;61.05;33.38;;;;;;;;;;5035891;28;20449;-45
2021/10/28 18:51:26;;;;;;;54.83;33.50;;;;;;;;;;5036142;28;20176;-45
2021/10/28 18:53:53;;;;;;;55.88;32.75;;;;;;;;;;5035560;28;20199;-45
2021/10/28 18:56:19;;;;;;;51.38;32.15;;;;;;;;;;5035879;28;20218;-45
2021/10/28 18:58:46;;;;;;;54.08;32.65;;;;;;;;;;5035918;28;20176;-45
2021/10/28 19:01:14;;;;;;;51.53;30.00;;;;;;;;;;5027410;28;20184;-45
2021/10/28 19:03:41;;;;;;;55.60;32.30;;;;;;;;;;5035295;28;20463;-45
2021/10/28 19:06:08;;;;;;;50.13;31.48;;;;;;;;;;5035952;28;20203;-45
2021/10/28 19:08:36;;;;;;;51.30;31.30;;;;;;;;;;5035293;28;20247;-45
2021/10/28 19:11:03;;;;;;;49.92;30.48;;;;;;;;;;5035590;28;20226;-45
2021/10/28 19:13:29;;;;;;;50.00;30.00;;;;;;;;;;5035432;28;20191;-45
2021/10/28 19:15:55;;;;;;;43.65;28.67;;;;;;;;;;5035089;28;20180;-45
2021/10/28 19:18:21;;;;;;;45.58;28.35;;;;;;;;;;5035264;28;20183;-45
2021/10/28 19:20:48;;;;;;;45.88;28.13;;;;;;;;;;5035427;28;20567;-45
2021/10/28 19:23:14;;;;;;;44.33;27.55;;;;;;;;;;5035086;28;20314;-45
2021/10/28 19:25:41;;;;;;;49.22;28.95;;;;;;;;;;5035107;28;20206;-45
2021/10/28 19:28:08;;;;;;;39.35;25.75;;;;;;;;;;5035575;28;20460;-46
2021/10/28 19:30:49;;;;;;;39.05;24.80;;;;;;;;;;5026611;28;20175;-45
2021/10/28 19:33:18;;;;;;;42.22;25.95;;;;;;;;;;5034933;28;20172;-45
2021/10/28 19:35:52;;;;;;;37.35;24.80;;;;;;;;;;5035541;28;20179;-45
2021/10/28 19:46:35;;;;;;;34.35;22.60;;;;;;;;;;5033895;28;20226;-45
2021/10/28 19:49:01;;;;;;;34.22;22.17;;;;;;;;;;5043392;28;20179;-45
2021/10/28 19:51:27;;;;;;;36.85;23.27;;;;;;;;;;5050182;28;20226;-45
2021/10/28 19:53:54;;;;;;;37.13;22.80;;;;;;;;;;5034737;28;20465;-45
2021/10/28 19:56:21;;;;;;;32.83;22.60;;;;;;;;;;5034967;28;20194;-45
2021/10/28 19:58:50;;;;;;;34.90;22.02;;;;;;;;;;5034491;28;20168;-45
2021/10/28 20:04:14;;;;;;;31.75;21.42;;;;;;;;;;5022928;28;20188;-45
2021/10/28 20:20:22;;;;;;;31.02;20.15;;;;;;;;;;5032829;28;20235;-45
2021/10/28 20:22:44;;;;;;;29.33;19.70;;;;;;;;;;5013764;28;20188;-45
2021/10/28 20:25:11;;;;;;;28.13;18.67;;;;;;;;;;5024501;28;20183;-45
2021/10/28 20:27:37;;;;;;;25.63;17.95;;;;;;;;;;5034326;28;20223;-47
2021/10/28 20:30:04;;;;;;;31.27;19.10;;;;;;;;;;5033937;28;20194;-45
2021/10/28 20:32:30;;;;;;;25.58;17.58;;;;;;;;;;5034600;28;20194;-45
2021/10/28 20:35:09;;;;;;;28.67;18.65;;;;;;;;;;5025944;28;20188;-45
2021/10/28 20:37:36;;;;;;;25.77;18.42;;;;;;;;;;5029723;28;20176;-45
2021/10/28 20:40:03;;;;;;;26.90;18.35;;;;;;;;;;5034400;28;20187;-46
2021/10/28 20:42:50;;;;;;;24.10;16.35;;;;;;;;;;5033882;28;20731;-45
2021/10/28 20:45:17;;;;;;;25.92;17.15;;;;;;;;;;5034224;28;20180;-45
2021/10/28 20:47:43;;;;;;;24.10;16.90;;;;;;;;;;5033908;28;20219;-45
2021/10/28 20:50:11;;;;;;;22.08;15.60;;;;;;;;;;5033782;28;20445;-45
2021/10/28 20:52:38;;;;;;;24.63;15.95;;;;;;;;;;5033521;28;20769;-45
2021/10/28 20:55:04;;;;;;;23.17;16.33;;;;;;;;;;5033618;28;20211;-46
2021/10/28 20:57:30;;;;;;;22.95;15.95;;;;;;;;;;5034087;28;20206;-46
2021/10/28 20:59:56;;;;;;;21.58;14.95;;;;;;;;;;5033986;28;20290;-45
2021/10/28 21:02:22;;;;;;;22.85;15.27;;;;;;;;;;5034368;28;20202;-45
2021/10/28 21:04:48;;;;;;;21.70;15.40;;;;;;;;;;5033743;28;20595;-45
2021/10/28 21:07:14;;;;;;;24.20;15.68;;;;;;;;;;5032900;28;20297;-45
2021/10/28 21:09:40;;;;;;;19.92;14.50;;;;;;;;;;5032682;28;20176;-45
2021/10/28 21:12:07;;;;;;;21.73;14.50;;;;;;;;;;5034164;28;20186;-45
2021/10/28 21:14:33;;;;;;;20.83;14.50;;;;;;;;;;5033183;28;20219;-45
2021/10/28 21:16:59;;;;;;;20.08;14.45;;;;;;;;;;5034386;28;20184;-45
2021/10/28 21:19:25;;;;;;;19.73;13.90;;;;;;;;;;5033662;28;20188;-45
2021/10/28 21:21:51;;;;;;;17.92;13.50;;;;;;;;;;5034484;28;20194;-45
2021/10/28 21:24:18;;;;;;;17.90;13.75;;;;;;;;;;5031857;28;20176;-46
2021/10/28 21:26:44;;;;;;;20.60;14.32;;;;;;;;;;5033956;28;20223;-46
2021/10/28 21:29:11;;;;;;;20.95;13.25;;;;;;;;;;5034157;28;20587;-46
2021/10/28 21:31:37;;;;;;;20.13;13.88;;;;;;;;;;5035635;28;20180;-46
2021/10/28 21:34:03;;;;;;;19.50;13.50;;;;;;;;;;5037242;28;20180;-46
2021/10/28 21:36:29;;;;;;;18.40;13.48;;;;;;;;;;5037589;28;20283;-46
2021/10/28 21:38:55;;;;;;;18.58;12.85;;;;;;;;;;5036957;28;20210;-46
2021/10/28 21:41:22;;;;;;;16.40;12.07;;;;;;;;;;5020838;28;20460;-45
2021/10/28 21:43:50;;;;;;;16.27;12.25;;;;;;;;;;5037281;28;20186;-45
2021/10/28 21:46:17;;;;;;;18.75;12.95;;;;;;;;;;5026152;28;20222;-45
2021/10/28 21:48:43;;;;;;;17.08;11.68;;;;;;;;;;5036668;28;20176;-45
2021/10/28 21:51:09;;;;;;;16.63;11.65;;;;;;;;;;5037556;28;20203;-45
2021/10/28 21:53:39;;;;;;;15.25;11.23;;;;;;;;;;5036768;28;20580;-45
2021/10/28 21:56:16;;;;;;;17.27;10.98;;;;;;;;;;5035794;28;20780;-45
2021/10/28 21:59:48;;;;;;;15.90;12.15;;;;;;;;;;5036993;28;20180;-45
2021/10/28 22:01:43;;;;;;;16.65;11.38;;;;;;;;;;5036183;28;20203;-45
2021/10/28 22:07:11;;;;;;;16.13;11.23;;;;;;;;;;5036884;28;20223;-45
2021/10/28 22:26:06;;;;;;;16.10;9.77;;;;;;;;;;5036815;28;20206;-46
2021/10/28 22:28:32;;;;;;;14.60;9.43;;;;;;;;;;5033774;28;20188;-46
2021/10/28 22:30:58;;;;;;;13.65;9.73;;;;;;;;;;5036043;28;20187;-46
2021/10/28 22:33:24;;;;;;;16.35;9.10;;;;;;;;;;5036095;28;20444;-46
2021/10/28 22:35:59;;;;;;;14.23;9.40;;;;;;;;;;5036624;28;20291;-46
2021/10/28 22:38:31;;;;;;;12.65;8.60;;;;;;;;;;5035854;28;20178;-45
2021/10/28 22:40:57;;;;;;;12.48;9.07;;;;;;;;;;5036227;28;20180;-45
2021/10/28 22:43:23;;;;;;;13.40;8.93;;;;;;;;;;5034481;28;20172;-45
2021/10/28 22:45:49;;;;;;;11.73;8.68;;;;;;;;;;5034280;28;20791;-45
2021/10/28 22:48:16;;;;;;;12.25;8.35;;;;;;;;;;5035508;28;20183;-45
2021/10/28 22:50:42;;;;;;;11.85;8.70;;;;;;;;;;5035783;28;20233;-45
2021/10/28 22:53:09;;;;;;;11.77;8.63;;;;;;;;;;5035807;28;20161;-45
2021/10/28 22:55:40;;;;;;;11.82;7.95;;;;;;;;;;5036122;28;20180;-46
2021/10/28 23:03:08;;;;;;;12.25;7.90;;;;;;;;;;5028481;28;20567;-45
2021/10/28 23:14:18;;;;;;;9.85;7.50;;;;;;;;;;5033904;28;20555;-45
2021/10/28 23:21:54;;;;;;;10.80;7.30;;;;;;;;;;5035796;28;20559;-46
2021/10/28 23:24:20;;;;;;;8.80;7.28;;;;;;;;;;5034958;28;20171;-46
2021/10/28 23:26:46;;;;;;;10.13;7.60;;;;;;;;;;5035059;28;20282;-45
2021/10/28 23:29:12;;;;;;;10.50;7.13;;;;;;;;;;5034851;28;20168;-45
2021/10/28 23:31:39;;;;;;;10.75;7.32;;;;;;;;;;5035362;28;20186;-45
2021/10/28 23:34:05;;;;;;;10.85;7.50;;;;;;;;;;5034804;28;20176;-45
2021/10/28 23:36:31;;;;;;;10.68;7.03;;;;;;;;;;5021297;28;20183;-45
2021/10/28 23:38:57;;;;;;;8.85;7.45;;;;;;;;;;5034672;28;20201;-45
2021/10/28 23:41:23;;;;;;;12.95;7.25;;;;;;;;;;5035543;28;20176;-45
2021/10/28 23:43:49;;;;;;;10.40;7.18;;;;;;;;;;5033647;28;20478;-45
2021/10/28 23:46:15;;;;;;;8.88;7.03;;;;;;;;;;5034601;28;20611;-45
2021/10/28 23:48:41;;;;;;;10.05;7.38;;;;;;;;;;5034928;28;20195;-45
2021/10/28 23:51:07;;;;;;;7.55;6.32;;;;;;;;;;5032824;28;20204;-45
2021/10/28 23:53:33;;;;;;;8.80;6.90;;;;;;;;;;5026508;28;20195;-45
2021/10/28 23:55:59;;;;;;;8.60;6.75;;;;;;;;;;5034838;28;20533;-45
2021/10/28 23:58:25;;;;;;;8.23;6.30;;;;;;;;;;5034102;28;20187;-45
